Time;durP1;ratioP1;P1;durP2;ratioP2;P2;SDS_P1;SDS_P2;PMS_P1;PMS_P2;Temp;Humidity;BMP_temperature;BMP_pressure;BME280_temperature;BME280_humidity;BME280_pressure;Samples;Min_cycle;Max_cycle;Signal;HPM_P1;HPM_P2
2022/02/25 00:00:31;;;;;;;58.60;3.20;;;;;;;;;;5095177;28;20694;-70
2022/02/25 00:02:58;;;;;;;58.40;2.90;;;;;;;;;;5094957;28;20207;-70
2022/02/25 00:05:26;;;;;;;58.45;3.40;;;;;;;;;;5094893;28;20315;-69
2022/02/25 00:07:53;;;;;;;58.08;2.88;;;;;;;;;;5094824;28;20602;-70
2022/02/25 00:10:21;;;;;;;62.10;3.30;;;;;;;;;;5095054;28;20299;-70
2022/02/25 00:12:48;;;;;;;61.50;3.20;;;;;;;;;;5094725;28;20232;-69
2022/02/25 00:15:16;;;;;;;59.80;3.28;;;;;;;;;;5094729;28;20235;-67
2022/02/25 00:17:43;;;;;;;62.10;3.63;;;;;;;;;;5094397;28;20204;-68
2022/02/25 00:20:11;;;;;;;59.38;3.55;;;;;;;;;;5094650;28;20200;-69
2022/02/25 00:22:39;;;;;;;63.10;3.58;;;;;;;;;;5094648;28;20208;-68
2022/02/25 00:25:07;;;;;;;58.88;3.05;;;;;;;;;;5094619;28;20635;-70
2022/02/25 00:27:37;;;;;;;58.90;3.30;;;;;;;;;;5094260;28;20664;-69
2022/02/25 00:30:05;;;;;;;61.30;3.35;;;;;;;;;;5094384;28;20302;-70
2022/02/25 00:32:32;;;;;;;58.97;3.28;;;4.40;1.00;;;;;;5094301;28;20235;-69
2022/02/25 00:34:59;;;;;;;59.72;3.30;;;;;;;;;;5094437;28;20263;-70
2022/02/25 00:37:26;;;;;;;58.78;3.40;;;4.10;1.00;;;;;;5094216;28;20208;-70
2022/02/25 00:39:52;;;;;;;59.80;3.60;;;4.00;1.00;;;;;;5094152;28;20686;-70
2022/02/25 00:42:20;;;;;;;60.83;3.42;;;4.00;1.00;;;;;;5094166;28;20226;-69
2022/02/25 00:44:48;;;;;;;59.42;3.40;;;3.90;1.00;;;;;;5094632;28;20586;-70
2022/02/25 00:47:15;;;;;;;61.42;3.45;;;3.90;1.00;;;;;;5093792;28;20687;-70
2022/02/25 00:49:43;;;;;;;63.17;3.88;;;3.80;1.00;;;;;;5094292;28;20203;-69
2022/02/25 00:52:10;;;;;;;59.50;3.35;;;3.80;1.00;;;;;;5094297;28;20231;-70
2022/02/25 00:54:39;;;;;;;61.35;4.30;;;3.80;1.00;;;;;;5093143;28;20231;-70
2022/02/25 00:57:06;;;;;;;59.00;3.53;;;3.80;1.00;;;;;;5094175;28;20204;-76
2022/02/25 00:59:33;;;;;;;61.25;3.65;;;3.80;1.00;;;;;;5094022;28;20679;-70
2022/02/25 01:02:01;;;;;;;60.15;3.50;;;3.80;1.00;;;;;;5094161;28;20295;-70
2022/02/25 01:04:29;;;;;;;59.38;3.40;;;3.80;1.00;;;;;;5093730;28;20221;-70
2022/02/25 01:06:56;;;;;;;62.45;3.70;;;3.80;1.00;;;;;;5093880;28;20204;-70
2022/02/25 01:09:24;;;;;;;60.38;3.47;;;3.80;1.00;;;;;;5093571;28;20283;-71
2022/02/25 01:11:51;;;;;;;58.65;3.78;;;3.70;1.00;;;;;;5093727;28;20212;-70
2022/02/25 01:14:18;;;;;;;59.08;3.35;;;3.70;1.00;;;;;;5093740;28;20335;-70
2022/02/25 01:16:45;;;;;;;59.47;3.80;;;3.60;1.00;;;;;;5093874;28;20210;-70
2022/02/25 01:19:14;;;;;;;58.90;3.72;;;3.60;1.00;;;;;;5093293;28;20204;-71
2022/02/25 01:21:41;;;;;;;58.65;3.40;;;3.50;1.00;;;;;;5093554;28;20211;-69
2022/02/25 01:24:08;;;;;;;59.47;3.88;;;3.50;1.00;;;;;;5093138;28;20239;-70
2022/02/25 01:26:35;;;;;;;59.15;3.65;;;3.50;1.00;;;;;;5093299;28;20215;-70
2022/02/25 01:29:02;;;;;;;59.72;3.92;;;3.50;1.00;;;;;;5092935;28;20234;-70
2022/02/25 01:31:29;;;;;;;61.72;3.80;;;3.50;1.00;;;;;;5093494;28;20204;-70
2022/02/25 01:33:56;;;;;;;60.45;3.90;;;3.40;1.00;;;;;;5093087;28;20364;-70
2022/02/25 01:36:24;;;;;;;59.40;3.67;;;3.40;1.00;;;;;;5093206;28;20295;-69
2022/02/25 01:38:51;;;;;;;60.47;3.67;;;3.40;1.00;;;;;;5092943;28;20214;-69
2022/02/25 01:41:19;;;;;;;59.65;3.50;;;3.40;1.00;;;;;;5092999;28;20204;-70
2022/02/25 01:43:46;;;;;;;62.00;3.65;;;3.40;1.00;;;;;;5093356;28;20205;-71
2022/02/25 01:46:13;;;;;;;60.72;3.88;;;3.30;1.00;;;;;;5093115;28;20665;-70
2022/02/25 01:48:40;;;;;;;59.63;3.80;;;3.30;1.00;;;;;;5092853;28;20295;-69
2022/02/25 01:51:07;;;;;;;59.25;3.72;;;3.30;1.00;;;;;;5092840;28;20744;-70
2022/02/25 01:53:35;;;;;;;63.50;4.53;;;3.20;1.00;;;;;;5092750;28;20230;-70
2022/02/25 01:56:02;;;;;;;60.20;3.72;;;3.20;1.00;;;;;;5092716;28;20232;-70
2022/02/25 01:58:29;;;;;;;59.67;4.00;;;3.10;1.00;;;;;;5092437;28;20677;-70
2022/02/25 02:00:59;;;;;;;63.50;5.10;;;3.10;1.00;;;;;;5092875;28;20204;-69
2022/02/25 02:03:27;;;;;;;60.75;4.30;;;;;;;;;;5092594;28;20204;-69
2022/02/25 02:05:54;;;;;;;60.85;3.25;;;;;;;;;;5092547;28;20228;-69
2022/02/25 02:08:21;;;;;;;58.55;3.33;;;;;;;;;;5092261;28;20584;-72
2022/02/25 02:10:49;;;;;;;59.38;3.38;;;;;;;;;;5092828;28;20290;-70
2022/02/25 02:13:17;;;;;;;64.05;3.90;;;;;;;;;;5092652;28;20204;-69
2022/02/25 02:15:44;;;;;;;61.17;3.53;;;;;;;;;;5092598;28;20311;-70
2022/02/25 02:18:11;;;;;;;59.30;3.65;;;;;;;;;;5092253;28;20208;-69
2022/02/25 02:20:38;;;;;;;60.17;3.47;;;;;;;;;;5092331;28;20720;-70
2022/02/25 02:23:06;;;;;;;60.47;3.90;;;;;;;;;;5092292;28;20214;-70
2022/02/25 02:25:34;;;;;;;61.92;3.72;;;;;;;;;;5092464;28;20595;-70
2022/02/25 02:28:20;;;;;;;69.35;3.88;;;;;;;;;;5092112;28;20210;-69
2022/02/25 02:30:48;;;;;;;59.08;3.70;;;;;;;;;;5092272;28;20614;-69
2022/02/25 02:33:15;;;;;;;58.63;3.33;;;;;;;;;;5092006;28;20212;-69
2022/02/25 02:35:42;;;;;;;65.50;4.07;;;;;;;;;;5092309;28;20223;-70
2022/02/25 02:38:11;;;;;;;60.20;3.85;;;;;;;;;;5091861;28;20727;-69
2022/02/25 02:40:38;;;;;;;61.33;3.45;;;;;;;;;;5092229;28;20296;-70
2022/02/25 02:43:07;;;;;;;60.50;3.40;;;;;;;;;;5090810;28;20234;-70
2022/02/25 02:45:34;;;;;;;59.88;3.45;;;;;;;;;;5091246;28;20254;-72
2022/02/25 02:48:01;;;;;;;61.17;3.75;;;;;;;;;;5091685;28;20204;-69
2022/02/25 02:50:28;;;;;;;60.60;3.63;;;;;;;;;;5092013;28;20298;-70
2022/02/25 02:52:55;;;;;;;59.90;3.75;;;;;;;;;;5091975;28;20636;-70
2022/02/25 02:55:24;;;;;;;59.60;3.10;;;;;;;;;;5091691;28;20238;-70
2022/02/25 02:57:51;;;;;;;60.55;3.47;;;;;;;;;;5091876;28;20214;-70
2022/02/25 03:00:19;;;;;;;58.88;3.28;;;;;;;;;;5092117;28;20204;-70
2022/02/25 03:02:46;;;;;;;60.15;3.38;;;;;;;;;;5091781;28;20207;-70
2022/02/25 03:05:13;;;;;;;61.90;3.33;;;;;;;;;;5091868;28;20216;-70
2022/02/25 03:07:40;;;;;;;60.00;3.20;;;;;;;;;;5091573;28;20214;-72
2022/02/25 03:10:08;;;;;;;59.08;3.20;;;;;;;;;;5091719;28;20303;-70
2022/02/25 03:12:38;;;;;;;62.63;3.40;;;;;;;;;;5091662;28;20239;-70
2022/02/25 03:15:06;;;;;;;59.28;3.22;;;;;;;;;;5091742;28;20224;-70
2022/02/25 03:17:33;;;;;;;60.25;3.45;;;;;;;;;;5091337;28;20204;-69
2022/02/25 03:20:00;;;;;;;59.50;3.20;;;;;;;;;;5095832;28;20226;-70
2022/02/25 03:22:28;;;;;;;61.45;3.35;;;;;;;;;;5095694;28;20291;-70
2022/02/25 03:24:56;;;;;;;62.83;3.70;;;;;;;;;;5095924;28;20220;-70
2022/02/25 03:27:23;;;;;;;59.00;2.95;;;;;;;;;;5095438;28;20705;-71
2022/02/25 03:29:52;;;;;;;59.10;2.85;;;;;;;;;;5095598;28;20212;-70
2022/02/25 03:32:19;;;;;;;61.38;3.10;;;;;;;;;;5095584;28;20295;-70
2022/02/25 03:34:46;;;;;;;63.22;3.65;;;;;;;;;;5095448;28;20639;-70
2022/02/25 03:37:13;;;;;;;60.13;3.30;;;;;;;;;;5095480;28;20200;-70
2022/02/25 03:39:41;;;;;;;62.80;3.22;;;;;;;;;;5095692;28;20204;-70
2022/02/25 03:42:08;;;;;;;64.32;3.28;;;;;;;;;;5095395;28;20206;-71
2022/02/25 03:44:35;;;;;;;62.10;3.10;;;;;;;;;;5095328;28;20225;-70
2022/02/25 03:47:04;;;;;;;58.25;2.80;;;;;;;;;;5095267;28;20642;-70
2022/02/25 03:49:31;;;;;;;59.08;3.10;;;;;;;;;;5094999;28;20300;-68
2022/02/25 03:51:58;;;;;;;59.92;3.35;;;;;;;;;;5095631;28;20206;-70
2022/02/25 03:54:26;;;;;;;58.70;3.60;;;;;;;;;;5095198;28;20250;-70
2022/02/25 03:56:53;;;;;;;63.05;3.20;;;;;;;;;;5095197;28;20560;-70
2022/02/25 03:59:20;;;;;;;62.53;3.50;;;;;;;;;;5094871;28;20216;-71
2022/02/25 04:01:52;;;;;;;64.15;3.15;;;;;;;;;;5095054;28;20204;-70
2022/02/25 04:04:20;;;;;;;60.00;3.50;;;;;;;;;;5094885;28;20224;-70
2022/02/25 04:06:47;;;;;;;60.63;3.10;;;;;;;;;;5095216;28;20208;-70
2022/02/25 04:09:18;;;;;;;60.35;3.20;;;;;;;;;;5094792;28;20210;-71
2022/02/25 04:11:45;;;;;;;62.45;3.70;;;;;;;;;;5094934;28;20212;-70
2022/02/25 04:14:13;;;;;;;64.13;3.50;;;;;;;;;;5094646;28;20311;-72
2022/02/25 04:16:41;;;;;;;58.75;3.13;;;;;;;;;;5094552;28;20212;-70
2022/02/25 04:19:08;;;;;;;68.55;3.90;;;;;;;;;;5094714;28;20200;-72
2022/02/25 04:21:37;;;;;;;62.55;3.90;;;;;;;;;;5094893;28;20642;-70
2022/02/25 04:24:04;;;;;;;62.95;3.20;;;;;;;;;;5094493;28;20290;-70
2022/02/25 04:26:31;;;;;;;61.13;3.42;;;;;;;;;;5094647;28;20218;-70
2022/02/25 04:28:58;;;;;;;59.20;2.90;;;;;;;;;;5093813;28;20223;-70
2022/02/25 04:31:25;;;;;;;63.35;3.53;;;;;;;;;;5093577;28;20736;-70
2022/02/25 04:33:53;;;;;;;61.55;4.03;;;;;;;;;;5094506;28;20205;-72
2022/02/25 04:36:21;;;;;;;61.72;5.70;;;;;;;;;;5094481;28;20315;-70
2022/02/25 04:38:50;;;;;;;66.75;8.20;;;;;;;;;;5094237;28;20201;-70
2022/02/25 04:41:17;;;;;;;67.90;11.40;;;;;;;;;;5094189;28;20216;-72
2022/02/25 04:43:45;;;;;;;69.80;8.50;;;;;;;;;;5094099;28;20201;-70
2022/02/25 04:46:16;;;;;;;64.75;6.85;;;;;;;;;;5094188;28;20216;-70
2022/02/25 04:48:43;;;;;;;61.75;4.90;;;;;;;;;;5094195;28;20215;-70
2022/02/25 04:51:10;;;;;;;70.15;4.15;;;;;;;;;;5094369;28;20287;-70
2022/02/25 04:53:37;;;;;;;63.67;4.90;;;;;;;;;;5094079;28;20240;-71
2022/02/25 04:56:07;;;;;;;60.50;5.00;;;;;;;;;;5093749;28;20246;-70
2022/02/25 04:58:34;;;;;;;97.07;22.73;;;;;;;;;;5094251;28;20236;-70
2022/02/25 05:01:01;;;;;;;87.05;18.17;;;;;;;;;;5093844;28;20212;-69
2022/02/25 05:03:28;;;;;;;73.97;11.35;;;;;;;;;;5093914;28;20212;-70
2022/02/25 05:05:56;;;;;;;85.97;13.40;;;;;;;;;;5093774;28;20251;-73
2022/02/25 05:08:23;;;;;;;90.53;18.63;;;;;;;;;;5093473;28;20200;-70
2022/02/25 05:10:50;;;;;;;84.60;18.10;;;;;;;;;;5093637;28;20212;-70
2022/02/25 05:13:19;;;;;;;74.75;11.10;;;;;;;;;;5093871;28;20652;-69
2022/02/25 05:21:16;;;;;;;62.55;4.18;;;;;;;;;;5093574;28;20203;-70
2022/02/25 05:23:43;;;;;;;59.95;3.72;;;;;;;;;;5093399;28;20215;-70
2022/02/25 05:26:10;;;;;;;63.60;5.30;;;;;;;;;;5093391;28;20242;-72
2022/02/25 05:28:39;;;;;;;64.43;7.25;;;;;;;;;;5093264;28;20239;-69
2022/02/25 05:31:06;;;;;;;63.80;7.97;;;;;;;;;;5093335;28;20207;-71
2022/02/25 05:33:33;;;;;;;64.63;7.38;;;;;;;;;;5093199;28;20587;-70
2022/02/25 05:36:01;;;;;;;62.15;5.88;;;;;;;;;;5093087;28;20236;-70
2022/02/25 05:38:28;;;;;;;63.53;5.22;;;;;;;;;;5093266;28;20782;-70
2022/02/25 05:40:55;;;;;;;66.60;4.88;;;;;;;;;;5092969;28;20576;-70
2022/02/25 05:43:22;;;;;;;62.53;4.50;;;;;;;;;;5093168;28;20417;-70
2022/02/25 05:45:51;;;;;;;63.55;5.55;;;;;;;;;;5092702;28;20655;-70
2022/02/25 05:48:18;;;;;;;63.13;4.57;;;;;;;;;;5092635;28;20295;-70
2022/02/25 05:50:45;;;;;;;61.08;4.90;;;;;;;;;;5092965;28;20211;-70
2022/02/25 05:53:12;;;;;;;64.30;4.50;;;;;;;;;;5092974;28;20208;-70
2022/02/25 05:55:39;;;;;;;62.40;5.07;;;;;;;;;;5092739;28;20234;-70
2022/02/25 05:58:06;;;;;;;68.82;7.78;;;;;;;;;;5092586;28;20208;-70
2022/02/25 06:00:34;;;;;;;63.88;8.18;;;;;;;;;;5092671;28;20254;-71
2022/02/25 06:03:03;;;;;;;77.63;11.98;;;;;;;;;;5092904;28;20687;-71
2022/02/25 06:05:30;;;;;;;74.85;8.75;;;;;;;;;;5092839;28;20252;-70
2022/02/25 06:07:59;;;;;;;89.70;17.92;;;;;;;;;;5092566;28;20311;-69
2022/02/25 06:10:26;;;;;;;104.88;24.98;;;;;;;;;;5092656;28;20551;-70
2022/02/25 06:12:53;;;;;;;95.25;22.77;;;;;;;;;;5092472;28;20706;-70
2022/02/25 06:15:21;;;;;;;76.03;10.85;;;;;;;;;;5092216;28;20271;-70
2022/02/25 06:17:49;;;;;;;65.72;7.40;;;;;;;;;;5092219;28;20209;-71
2022/02/25 06:20:18;;;;;;;65.80;6.85;;;;;;;;;;5092693;28;20585;-71
2022/02/25 06:22:45;;;;;;;69.45;6.28;;;;;;;;;;5092527;28;20203;-70
2022/02/25 06:25:12;;;;;;;63.00;4.70;;;;;;;;;;5092448;28;20314;-70
2022/02/25 06:27:39;;;;;;;63.65;4.55;;;;;;;;;;5092113;28;20205;-69
2022/02/25 06:30:08;;;;;;;62.88;4.63;;;;;;;;;;5092059;28;20299;-70
2022/02/25 06:32:35;;;;;;;62.60;4.13;;;;;;;;;;5090103;28;20218;-69
2022/02/25 06:35:02;;;;;;;66.43;4.90;;;;;;;;;;5091958;28;20219;-72
2022/02/25 06:37:30;;;;;;;63.90;4.20;;;;;;;;;;5091977;28;20204;-69
2022/02/25 06:39:58;;;;;;;63.25;3.88;;;;;;;;;;5092041;28;20295;-68
2022/02/25 06:42:25;;;;;;;63.47;4.20;;;;;;;;;;5091875;28;20210;-68
2022/02/25 06:44:52;;;;;;;63.75;3.78;;;;;;;;;;5090155;28;20593;-70
2022/02/25 06:47:19;;;;;;;59.85;3.40;;;;;;;;;;5091666;28;20210;-68
2022/02/25 06:49:47;;;;;;;63.58;3.55;;;;;;;;;;5091919;28;20226;-69
2022/02/25 06:52:14;;;;;;;61.80;4.30;;;;;;;;;;5091472;28;20219;-68
2022/02/25 06:54:42;;;;;;;62.15;3.95;;;;;;;;;;5091443;28;20548;-68
2022/02/25 06:57:10;;;;;;;61.72;4.25;;;;;;;;;;5091435;28;20227;-72
2022/02/25 06:59:37;;;;;;;64.20;4.18;;;;;;;;;;5092080;28;20239;-69
2022/02/25 07:02:04;;;;;;;64.15;4.43;;;;;;;;;;5091901;28;20246;-69
2022/02/25 07:04:31;;;;;;;59.75;3.75;;;;;;;;;;5091806;28;20228;-69
2022/02/25 07:06:59;;;;;;;60.47;4.05;;;;;;;;;;5091746;28;20226;-68
2022/02/25 07:09:26;;;;;;;61.15;3.72;;;;;;;;;;5091271;28;20261;-69
2022/02/25 07:11:54;;;;;;;63.80;3.78;;;;;;;;;;5091658;28;20712;-69
2022/02/25 07:14:22;;;;;;;62.10;4.22;;;;;;;;;;5091479;28;20259;-69
2022/02/25 07:16:49;;;;;;;63.92;3.85;;;;;;;;;;5090444;28;20230;-69
2022/02/25 07:19:16;;;;;;;61.78;3.60;;;;;;;;;;5091156;28;20204;-68
2022/02/25 07:21:43;;;;;;;59.40;3.58;;;;;;;;;;5091799;28;20287;-69
2022/02/25 07:24:10;;;;;;;61.05;5.05;;;;;;;;;;5091369;28;20204;-69
2022/02/25 07:26:37;;;;;;;64.05;3.60;;;;;;;;;;5091296;28;20294;-69
2022/02/25 07:29:06;;;;;;;72.07;4.22;;;;;;;;;;5091132;28;20212;-69
2022/02/25 07:31:33;;;;;;;64.40;3.70;;;;;;;;;;5091670;28;20681;-70
2022/02/25 07:34:01;;;;;;;71.10;4.13;;;;;;;;;;5091433;28;20255;-69
2022/02/25 07:36:28;;;;;;;59.58;3.90;;;;;;;;;;5091328;28;20224;-70
2022/02/25 07:38:55;;;;;;;62.40;3.70;;;;;;;;;;5091233;28;20243;-69
2022/02/25 07:41:22;;;;;;;59.80;3.80;;;;;;;;;;5091745;28;20211;-69
2022/02/25 07:43:49;;;;;;;64.63;3.92;;;;;;;;;;5091480;28;20271;-69
2022/02/25 07:46:18;;;;;;;61.33;3.97;;;;;;;;;;5091413;28;20224;-67
2022/02/25 07:48:46;;;;;;;60.45;4.18;;;;;;;;;;5091037;28;20204;-68
2022/02/25 07:51:13;;;;;;;65.35;4.00;;;;;;;;;;5089204;28;20208;-69
2022/02/25 07:53:41;;;;;;;72.95;4.78;;;;;;;;;;5091534;28;20211;-68
2022/02/25 07:56:08;;;;;;;61.17;3.85;;;;;;;;;;5091199;28;20608;-68
2022/02/25 07:58:36;;;;;;;60.25;3.50;;;;;;;;;;5091014;28;20200;-68
2022/02/25 08:01:03;;;;;;;62.20;3.97;;;;;;;;;;5091269;28;20200;-69
2022/02/25 08:03:32;;;;;;;73.22;4.05;;;;;;;;;;5091105;28;20247;-69
2022/02/25 08:05:59;;;;;;;65.88;4.32;;;;;;;;;;5094681;28;20306;-70
2022/02/25 08:08:26;;;;;;;59.20;3.42;;;;;;;;;;5094889;28;20430;-68
2022/02/25 08:10:53;;;;;;;62.63;3.70;;;;;;;;;;5094843;28;20208;-69
2022/02/25 08:13:20;;;;;;;61.80;3.60;;;;;;;;;;5094733;28;20217;-68
2022/02/25 08:15:47;;;;;;;61.53;4.50;;;;;;;;;;5094531;28;20232;-69
2022/02/25 08:18:15;;;;;;;59.75;3.17;;;;;;;;;;5094150;28;20207;-69
2022/02/25 08:20:43;;;;;;;62.30;3.72;;;;;;;;;;5094392;28;20227;-68
2022/02/25 08:23:10;;;;;;;66.80;3.30;;;;;;;;;;5092198;28;20295;-68
2022/02/25 08:25:38;;;;;;;59.67;2.85;;;;;;;;;;5094668;28;20224;-68
2022/02/25 08:28:06;;;;;;;64.50;3.00;;;;;;;;;;5094100;28;20203;-70
2022/02/25 08:30:33;;;;;;;59.65;3.20;;;;;;;;;;5094530;28;20653;-69
2022/02/25 08:33:02;;;;;;;60.70;3.40;;;;;;;;;;5094183;28;20296;-69
2022/02/25 08:35:30;;;;;;;60.20;3.40;;;;;;;;;;5094414;28;20220;-68
2022/02/25 08:37:59;;;;;;;64.40;3.83;;;;;;;;;;5094160;28;20711;-68
2022/02/25 08:40:26;;;;;;;61.42;4.00;;;;;;;;;;5094098;28;20686;-69
2022/02/25 08:42:54;;;;;;;59.85;3.88;;;;;;;;;;5093923;28;20200;-70
2022/02/25 08:45:21;;;;;;;68.53;3.45;;;;;;;;;;5093925;28;20231;-70
2022/02/25 08:47:49;;;;;;;60.95;3.10;;;;;;;;;;5093694;28;20687;-68
2022/02/25 08:50:17;;;;;;;60.58;3.40;;;;;;;;;;5094232;28;20208;-68
2022/02/25 08:52:44;;;;;;;61.80;3.65;;;;;;;;;;5094062;28;20736;-69
2022/02/25 08:55:13;;;;;;;62.60;3.30;;;;;;;;;;5093823;28;20259;-69
2022/02/25 08:57:42;;;;;;;67.32;3.80;;;;;;;;;;5093435;28;20197;-68
2022/02/25 09:00:11;;;;;;;65.53;3.67;;;;;;;;;;5094001;28;20254;-67
2022/02/25 09:02:38;;;;;;;61.55;3.90;;;;;;;;;;5093946;28;20668;-71
2022/02/25 09:05:05;;;;;;;62.45;3.38;;;;;;;;;;5092130;28;20590;-69
2022/02/25 09:07:32;;;;;;;66.70;3.45;;;;;;;;;;5093573;28;20560;-69
2022/02/25 09:10:00;;;;;;;60.15;3.20;;;;;;;;;;5093595;28;20204;-68
2022/02/25 09:12:28;;;;;;;59.10;3.17;;;;;;;;;;5093337;28;20287;-69
2022/02/25 09:14:56;;;;;;;61.35;2.92;;;;;;;;;;5093464;28;20799;-68
2022/02/25 09:17:25;;;;;;;64.65;3.28;;;;;;;;;;5092393;28;20795;-69
2022/02/25 09:19:52;;;;;;;63.20;3.33;;;;;;;;;;5093601;28;20208;-68
2022/02/25 09:22:19;;;;;;;62.20;3.50;;;;;;;;;;5093458;28;20208;-68
2022/02/25 09:24:47;;;;;;;61.90;3.38;;;;;;;;;;5093179;28;20224;-69
2022/02/25 09:27:14;;;;;;;66.88;3.05;;;;;;;;;;5093264;28;20203;-70
2022/02/25 09:29:43;;;;;;;64.85;3.22;;;;;;;;;;5093162;28;20219;-68
2022/02/25 09:32:10;;;;;;;62.97;3.40;;;;;;;;;;5093485;28;20204;-68
2022/02/25 09:34:37;;;;;;;69.43;3.28;;;;;;;;;;5093233;28;20742;-68
2022/02/25 09:37:05;;;;;;;58.17;2.72;;;;;;;;;;5091231;28;20224;-73
2022/02/25 09:39:32;;;;;;;59.45;3.05;;;;;;;;;;5092912;28;20234;-68
2022/02/25 09:41:59;;;;;;;60.25;3.88;;;;;;;;;;5093255;28;20208;-69
2022/02/25 09:44:27;;;;;;;59.65;3.15;;;;;;;;;;5092829;28;20224;-68
2022/02/25 09:46:56;;;;;;;62.00;2.90;;;;;;;;;;5092992;28;20229;-68
2022/02/25 09:49:24;;;;;;;61.07;3.10;;;;;;;;;;5092597;28;20212;-69
2022/02/25 09:51:52;;;;;;;64.53;3.30;;;;;;;;;;5092816;28;21028;-69
2022/02/25 09:54:20;;;;;;;63.00;3.05;;;;;;;;;;5092906;28;20329;-70
2022/02/25 09:56:48;;;;;;;62.42;3.30;;;;;;;;;;5092754;28;20228;-72
2022/02/25 09:59:15;;;;;;;63.75;3.15;;;;;;;;;;5092633;28;20292;-69
2022/02/25 10:01:42;;;;;;;67.10;3.40;;;;;;;;;;5092721;28;20315;-68
2022/02/25 10:04:15;;;;;;;62.93;3.07;;;;;;;;;;5092560;28;20985;-71
2022/02/25 10:06:43;;;;;;;63.40;3.20;;;;;;;;;;5089911;28;21227;-69
2022/02/25 10:09:14;;;;;;;60.30;2.90;;;;;;;;;;5092536;28;20446;-70
2022/02/25 10:11:59;;;;;;;59.97;3.10;;;;;;;;;;5092533;28;20899;-68
2022/02/25 10:14:30;;;;;;;61.67;2.80;;;;;;;;;;5092358;28;20466;-69
2022/02/25 10:17:12;;;;;;;62.90;3.63;;;;;;;;;;5092661;28;20481;-69
2022/02/25 10:19:41;;;;;;;64.00;3.30;;;;;;;;;;5092528;28;20885;-68
2022/02/25 10:22:15;;;;;;;59.80;2.90;;;;;;;;;;5092484;28;20546;-69
2022/02/25 10:24:46;;;;;;;59.40;2.77;;;;;;;;;;5092200;28;20478;-70
2022/02/25 10:27:20;;;;;;;62.77;3.00;;;;;;;;;;5091383;28;20439;-68
2022/02/25 10:29:58;;;;;;;63.00;3.47;;;;;;;;;;5091933;28;20457;-71
2022/02/25 10:32:29;;;;;;;58.17;2.70;;;;;;;;;;5092208;28;20446;-70
2022/02/25 10:34:57;;;;;;;60.70;3.40;;;;;;;;;;5092455;28;20559;-71
2022/02/25 10:37:24;;;;;;;61.20;4.50;;;;;;;;;;5091629;28;21005;-70
2022/02/25 10:39:53;;;;;;;60.13;3.00;;;;;;;;;;5091891;28;20453;-68
2022/02/25 10:42:23;;;;;;;63.50;3.10;;;;;;;;;;5092245;28;20900;-70
2022/02/25 10:44:51;;;;;;;62.80;3.03;;;;;;;;;;5092046;28;20524;-69
2022/02/25 10:47:19;;;;;;;59.30;2.97;;;;;;;;;;5091620;28;20521;-67
2022/02/25 10:49:47;;;;;;;61.10;3.07;;;;;;;;;;5092047;28;20536;-70
2022/02/25 10:52:26;;;;;;;60.60;2.77;;;;;;;;;;5091776;28;20836;-70
2022/02/25 10:54:54;;;;;;;62.23;3.97;;;;;;;;;;5092098;28;20541;-67
2022/02/25 10:57:21;;;;;;;62.13;3.10;;;;;;;;;;5091668;28;20483;-72
2022/02/25 10:59:49;;;;;;;59.10;2.97;;;;;;;;;;5091841;28;20450;-68
2022/02/25 11:02:37;;;;;;;61.23;3.00;;;;;;;;;;5091715;28;20442;-69
2022/02/25 11:05:06;;;;;;;63.33;3.67;;;;;;;;;;5085183;28;20504;-70
2022/02/25 11:07:35;;;;;;;59.83;3.10;;;;;;;;;;5091306;28;20442;-73
2022/02/25 11:10:02;;;;;;;64.20;3.40;;;;;;;;;;5091820;28;20527;-70
2022/02/25 11:12:30;;;;;;;62.27;3.47;;;;;;;;;;5091668;28;20553;-70
2022/02/25 11:14:57;;;;;;;63.13;3.00;;;;;;;;;;5092068;28;20494;-68
2022/02/25 11:17:25;;;;;;;61.13;3.07;;;;;;;;;;5091231;28;20485;-69
2022/02/25 11:19:55;;;;;;;59.73;2.93;;;;;;;;;;5092017;28;20509;-70
2022/02/25 11:22:22;;;;;;;59.97;3.33;;;;;;;;;;5091718;28;20453;-68
2022/02/25 11:24:51;;;;;;;58.90;3.00;;;;;;;;;;5091554;28;20477;-68
2022/02/25 11:27:19;;;;;;;65.57;3.00;;;;;;;;;;5071273;28;20878;-68
2022/02/25 11:29:52;;;;;;;60.83;2.97;;;;;;;;;;5071047;28;20470;-69
2022/02/25 11:32:20;;;;;;;57.97;2.90;;;;;;;;;;5071603;28;20448;-69
2022/02/25 11:34:48;;;;;;;61.10;3.00;;;;;;;;;;5071541;28;20474;-70
2022/02/25 11:37:15;;;;;;;59.67;3.07;;;;;;;;;;5075240;28;20520;-69
2022/02/25 11:39:46;;;;;;;60.73;2.70;;;;;;;;;;5072986;28;20532;-69
2022/02/25 11:42:28;;;;;;;59.60;3.30;;;;;;;;;;5075027;28;20446;-67
2022/02/25 11:45:04;;;;;;;59.53;3.20;;;;;;;;;;5075320;28;20588;-67
2022/02/25 11:47:40;;;;;;;59.00;2.77;;;;;;;;;;5074748;28;20988;-68
2022/02/25 11:50:22;;;;;;;61.27;3.10;;;;;;;;;;5075023;28;20453;-67
2022/02/25 11:52:59;;;;;;;58.40;2.63;;;;;;;;;;5074517;28;20527;-67
2022/02/25 11:55:26;;;;;;;61.23;3.30;;;;;;;;;;5074710;28;20473;-69
2022/02/25 11:57:55;;;;;;;59.67;2.90;;;;;;;;;;5073436;28;20483;-67
2022/02/25 12:00:23;;;;;;;58.67;2.70;;;;;;;;;;5074937;28;20490;-68
2022/02/25 12:03:10;;;;;;;61.40;3.23;;;;;;;;;;5074677;28;20542;-68
2022/02/25 12:05:37;;;;;;;58.87;2.87;;;;;;;;;;5074591;28;20461;-68
2022/02/25 12:08:21;;;;;;;58.57;2.70;;;;;;;;;;5074583;28;21206;-68
2022/02/25 12:10:49;;;;;;;63.43;3.27;;;;;;;;;;5074783;28;20542;-68
2022/02/25 12:13:23;;;;;;;61.67;3.43;;;;;;;;;;5074503;28;20568;-68
2022/02/25 12:15:50;;;;;;;60.73;3.10;;;;;;;;;;5074496;28;20463;-68
2022/02/25 12:18:19;;;;;;;61.70;3.50;;;;;;;;;;5074104;28;20486;-69
2022/02/25 12:20:47;;;;;;;59.10;3.00;;;;;;;;;;5074607;28;20497;-68
2022/02/25 12:23:15;;;;;;;60.67;2.93;;;;;;;;;;5074399;28;20454;-68
2022/02/25 12:25:52;;;;;;;61.37;3.00;;;;;;;;;;5073697;28;20478;-68
2022/02/25 12:28:42;;;;;;;62.20;3.20;;;;;;;;;;5073856;28;20465;-68
2022/02/25 12:31:10;;;;;;;60.70;3.20;;;;;;;;;;5074403;28;20618;-68
2022/02/25 12:33:39;;;;;;;58.50;2.90;;;;;;;;;;5073543;28;20538;-68
2022/02/25 12:36:08;;;;;;;59.97;2.93;;;;;;;;;;5073629;28;20478;-68
2022/02/25 12:38:38;;;;;;;62.00;3.00;;;;;;;;;;5072889;28;20483;-69
2022/02/25 12:41:13;;;;;;;62.17;3.13;;;;;;;;;;5073637;28;20443;-69
2022/02/25 12:43:49;;;;;;;65.37;3.00;;;;;;;;;;5073871;28;20525;-70
2022/02/25 12:46:16;;;;;;;60.47;3.50;;;;;;;;;;5073461;28;20469;-68
2022/02/25 12:48:43;;;;;;;62.93;3.40;;;;;;;;;;5072714;28;20450;-69
2022/02/25 12:51:10;;;;;;;60.07;3.23;;;;;;;;;;5072741;28;20444;-69
2022/02/25 12:53:51;;;;;;;58.57;3.00;;;;;;;;;;5072294;28;20974;-71
2022/02/25 12:56:22;;;;;;;60.27;3.23;;;;;;;;;;5073916;28;20552;-71
2022/02/25 12:58:51;;;;;;;58.87;4.03;;;;;;;;;;5078791;28;20483;-68
2022/02/25 13:01:19;;;;;;;63.50;2.90;;;;;;;;;;5093976;28;20442;-69
2022/02/25 13:03:46;;;;;;;60.70;3.13;;;;;;;;;;5093668;28;20469;-68
2022/02/25 13:06:14;;;;;;;59.73;2.77;;;;;;;;;;5093949;28;20465;-68
2022/02/25 13:08:41;;;;;;;58.40;3.40;;;;;;;;;;5093448;28;20454;-70
2022/02/25 13:11:08;;;;;;;59.60;3.20;;;;;;;;;;5091861;28;20496;-69
2022/02/25 13:13:35;;;;;;;60.37;3.53;;;;;;;;;;5093631;28;20448;-70
2022/02/25 13:16:05;;;;;;;61.80;3.13;;;;;;;;;;5093604;28;20859;-71
2022/02/25 13:18:33;;;;;;;62.97;3.70;;;;;;;;;;5093280;28;20577;-70
2022/02/25 13:21:01;;;;;;;60.90;3.47;;;;;;;;;;5093691;28;20450;-70
2022/02/25 13:23:29;;;;;;;60.00;3.00;;;;;;;;;;5093724;28;20503;-70
2022/02/25 13:25:59;;;;;;;59.90;3.13;;;;;;;;;;5093400;28;21065;-70
2022/02/25 13:28:26;;;;;;;59.57;3.10;;;;;;;;;;5092951;28;20541;-70
2022/02/25 13:30:54;;;;;;;58.47;3.10;;;;;;;;;;5093037;28;20457;-69
2022/02/25 13:33:23;;;;;;;63.37;3.50;;;;;;;;;;5093140;28;20449;-69
2022/02/25 13:35:59;;;;;;;59.07;2.87;;;;;;;;;;5093262;28;20549;-67
2022/02/25 13:38:27;;;;;;;65.67;4.00;;;;;;;;;;5093200;28;20488;-70
2022/02/25 13:40:55;;;;;;;60.17;3.10;;;;;;;;;;5090905;28;20855;-69
2022/02/25 13:43:24;;;;;;;60.97;3.50;;;;;;;;;;5092851;28;20632;-70
2022/02/25 13:45:52;;;;;;;63.03;3.43;;;;;;;;;;5093274;28;20510;-70
2022/02/25 13:54:05;;;;;;;59.37;3.17;;;;;;;;;;5086017;28;20484;-69
2022/02/25 13:56:33;;;;;;;63.38;3.50;;;;;;;;;;5092980;28;20442;-71
2022/02/25 13:59:01;;;;;;;61.70;3.40;;;;;;;;;;5092527;28;20601;-70
2022/02/25 14:01:28;;;;;;;58.70;3.00;;;;;;;;;;5092620;28;20211;-70
2022/02/25 14:03:55;;;;;;;59.15;3.30;;;;;;;;;;5092411;28;20208;-69
2022/02/25 14:06:28;;;;;;;61.15;3.13;;;;;;;;;;5092825;28;20213;-69
2022/02/25 14:08:56;;;;;;;61.05;3.10;;;;;;;;;;5092613;28;20591;-69
2022/02/25 14:11:34;;;;;;;61.80;3.10;;;;;;;;;;5092289;28;20244;-69
2022/02/25 14:14:01;;;;;;;58.90;3.30;;;;;;;;;;5072091;28;20456;-70
2022/02/25 14:16:28;;;;;;;61.17;3.95;;;;;;;;;;5072193;28;20751;-69
2022/02/25 14:18:55;;;;;;;62.60;3.28;;;;;;;;;;5071958;28;20239;-69
2022/02/25 14:21:31;;;;;;;59.90;3.07;;;;;;;;;;5087577;28;20227;-69
2022/02/25 14:23:58;;;;;;;59.33;3.40;;;;;;;;;;5092278;28;20761;-68
2022/02/25 14:26:30;;;;;;;60.40;3.60;;;;;;;;;;5092421;28;20454;-68
2022/02/25 14:28:57;;;;;;;60.77;3.10;;;;;;;;;;5091805;28;20836;-69
2022/02/25 14:31:25;;;;;;;60.45;3.55;;;;;;;;;;5092106;28;20457;-69
2022/02/25 14:33:52;;;;;;;60.37;3.07;;;;;;;;;;5092250;28;20245;-68
2022/02/25 14:36:20;;;;;;;61.30;3.53;;;;;;;;;;5092079;28;20541;-68